createdAt,value
2023-04-27T00:00:30.118Z,3315.00
2023-04-27T00:01:30.191Z,3277.00
2023-04-27T00:02:30.698Z,3258.00
2023-04-27T00:03:30.385Z,3271.00
2023-04-27T00:04:30.433Z,3284.00
2023-04-27T00:05:30.469Z,3285.00
2023-04-27T00:06:30.376Z,3317.00
2023-04-27T00:07:30.472Z,3331.00
2023-04-27T00:08:30.510Z,3325.00
2023-04-27T00:09:30.561Z,3370.00
2023-04-27T00:10:30.600Z,3385.00
2023-04-27T00:11:30.650Z,3406.00
2023-04-27T00:12:30.708Z,3417.00
2023-04-27T00:13:30.765Z,3408.00
2023-04-27T00:14:30.802Z,3400.00
2023-04-27T00:15:30.865Z,3417.00
2023-04-27T00:16:31.001Z,3392.00
2023-04-27T00:17:31.071Z,3414.00
2023-04-27T00:18:31.027Z,3432.00
2023-04-27T00:19:31.106Z,3432.00
2023-04-27T00:20:31.150Z,3416.00
2023-04-27T00:21:31.239Z,3436.00
2023-04-27T00:22:31.267Z,3437.00
2023-04-27T00:23:31.369Z,3428.00
2023-04-27T00:24:31.394Z,3401.00
2023-04-27T00:25:31.470Z,3419.00
2023-04-27T00:26:31.547Z,3418.00
2023-04-27T00:27:31.566Z,3379.00
2023-04-27T00:28:31.611Z,3381.00
2023-04-27T00:29:31.661Z,3349.00
2023-04-27T00:30:31.699Z,3308.00
2023-04-27T00:31:31.815Z,3260.00
2023-04-27T00:32:31.877Z,3264.00
2023-04-27T00:33:31.849Z,3255.00
2023-04-27T00:34:31.916Z,3250.00
2023-04-27T00:35:31.953Z,3258.00
2023-04-27T00:36:32.000Z,3263.00
2023-04-27T00:37:32.048Z,3254.00
2023-04-27T00:38:32.090Z,3264.00
2023-04-27T00:39:32.191Z,3255.00
2023-04-27T00:40:32.179Z,3268.00
2023-04-27T00:41:32.237Z,3245.00
2023-04-27T00:42:32.295Z,3225.00
2023-04-27T00:43:32.305Z,3210.00
2023-04-27T00:44:32.368Z,3200.00
2023-04-27T00:45:32.434Z,3203.00
2023-04-27T00:46:32.487Z,3187.00
2023-04-27T00:47:32.562Z,3202.00
2023-04-27T00:48:32.543Z,3169.00
2023-04-27T00:49:32.606Z,3159.00
2023-04-27T00:50:32.632Z,3177.00
2023-04-27T00:51:32.671Z,3190.00
2023-04-27T00:52:32.735Z,3176.00
2023-04-27T00:53:32.786Z,3184.00
2023-04-27T00:54:32.818Z,3187.00
2023-04-27T00:55:32.876Z,3181.00
2023-04-27T00:56:32.905Z,3136.00
2023-04-27T00:57:32.989Z,3155.00
2023-04-27T00:58:33.057Z,3172.00
2023-04-27T00:59:33.102Z,3189.00
2023-04-27T01:00:33.124Z,3195.00
2023-04-27T01:01:33.211Z,3221.00
2023-04-27T01:02:33.434Z,3236.00
2023-04-27T01:03:33.393Z,3252.00
2023-04-27T01:04:33.355Z,3232.00
2023-04-27T01:05:33.371Z,3213.00
2023-04-27T01:06:33.421Z,3240.00
2023-04-27T01:07:33.455Z,3253.00
2023-04-27T01:08:33.506Z,3253.00
2023-04-27T01:09:33.541Z,3232.00
2023-04-27T01:10:33.626Z,3188.00
2023-04-27T01:11:33.647Z,3171.00
2023-04-27T01:12:33.688Z,3186.00
2023-04-27T01:13:33.732Z,3181.00
2023-04-27T01:14:33.809Z,3176.00
2023-04-27T01:15:33.866Z,3175.00
2023-04-27T01:16:33.911Z,3196.00
2023-04-27T01:17:34.002Z,3166.00
2023-04-27T01:18:33.978Z,3100.00
2023-04-27T01:19:34.032Z,3122.00
2023-04-27T01:20:34.308Z,3163.00
2023-04-27T01:21:34.116Z,3178.00
2023-04-27T01:22:34.187Z,3178.00
2023-04-27T01:23:34.256Z,3173.00
2023-04-27T01:24:34.282Z,3191.00
2023-04-27T01:25:34.298Z,3204.00
2023-04-27T01:26:34.352Z,3218.00
2023-04-27T01:27:34.410Z,3222.00
2023-04-27T01:28:34.450Z,3209.00
2023-04-27T01:29:34.504Z,3221.00
2023-04-27T01:30:34.554Z,3241.00
2023-04-27T01:31:34.668Z,3225.00
2023-04-27T01:32:34.617Z,3225.00
2023-04-27T01:33:34.658Z,3250.00
2023-04-27T01:34:34.710Z,3241.00
2023-04-27T01:35:34.783Z,3246.00
2023-04-27T01:36:34.813Z,3247.00
2023-04-27T01:37:34.886Z,3251.00
2023-04-27T01:38:34.906Z,3244.00
2023-04-27T01:39:34.965Z,3253.00
2023-04-27T01:40:34.996Z,3215.00
2023-04-27T01:41:35.034Z,3191.00
2023-04-27T01:42:35.092Z,3176.00
2023-04-27T01:43:35.143Z,3173.00
2023-04-27T01:44:35.182Z,3177.00
2023-04-27T01:45:35.239Z,3147.00
2023-04-27T01:46:35.378Z,3159.00
2023-04-27T01:47:35.307Z,3165.00
2023-04-27T01:48:35.341Z,3144.00
2023-04-27T01:49:35.426Z,3137.00
2023-04-27T01:50:35.436Z,3115.00
2023-04-27T01:51:35.499Z,3125.00
2023-04-27T01:52:35.554Z,3101.00
2023-04-27T01:53:35.594Z,3075.00
2023-04-27T01:54:35.692Z,3022.00
2023-04-27T01:55:35.711Z,3001.00
2023-04-27T01:56:35.734Z,3020.00
2023-04-27T01:57:35.841Z,3042.00
2023-04-27T01:58:35.867Z,3068.00
2023-04-27T01:59:35.906Z,3075.00
2023-04-27T02:00:35.924Z,3089.00
2023-04-27T02:01:36.013Z,3080.00
2023-04-27T02:02:36.163Z,3077.00
2023-04-27T02:03:36.178Z,3054.00
2023-04-27T02:04:36.367Z,3084.00
2023-04-27T02:05:36.216Z,3101.00
2023-04-27T02:06:36.253Z,3135.00
2023-04-27T02:07:36.294Z,3147.00
2023-04-27T02:08:36.484Z,3181.00
2023-04-27T02:09:36.383Z,3210.00
2023-04-27T02:10:36.429Z,3234.00
2023-04-27T02:11:36.453Z,3300.00
2023-04-27T02:12:36.536Z,3288.00
2023-04-27T02:13:36.612Z,3306.00
2023-04-27T02:14:36.642Z,3333.00
2023-04-27T02:15:36.720Z,3335.00
2023-04-27T02:16:36.852Z,3387.00
2023-04-27T02:17:36.884Z,3451.00
2023-04-27T02:18:36.923Z,3559.00
2023-04-27T02:19:37.007Z,3609.00
2023-04-27T02:20:37.037Z,3614.00
2023-04-27T02:21:37.134Z,3566.00
2023-04-27T02:22:37.207Z,3677.00
2023-04-27T02:23:37.253Z,3760.00
2023-04-27T02:24:37.326Z,3782.00
2023-04-27T02:25:37.379Z,3754.00
2023-04-27T02:26:37.430Z,3744.00
2023-04-27T02:27:37.512Z,3775.00
2023-04-27T02:28:37.542Z,3737.00
2023-04-27T02:29:37.615Z,3669.00
2023-04-27T02:30:37.643Z,3638.00
2023-04-27T02:31:37.789Z,3680.00
2023-04-27T02:32:37.808Z,3704.00
2023-04-27T02:33:37.831Z,3689.00
2023-04-27T02:34:37.863Z,3632.00
2023-04-27T02:35:37.933Z,3636.00
2023-04-27T02:36:37.953Z,3652.00
2023-04-27T02:37:38.031Z,3638.00
2023-04-27T02:38:38.069Z,3619.00
2023-04-27T02:39:38.089Z,3613.00
2023-04-27T02:40:38.145Z,3638.00
2023-04-27T02:41:38.182Z,3629.00
2023-04-27T02:42:38.224Z,3606.00
2023-04-27T02:43:38.293Z,3613.00
2023-04-27T02:44:38.317Z,3579.00
2023-04-27T02:45:38.442Z,3597.00
2023-04-27T02:46:38.456Z,3606.00
2023-04-27T02:47:38.484Z,3597.00
2023-04-27T02:48:38.433Z,3585.00
2023-04-27T02:49:38.480Z,3599.00
2023-04-27T02:50:38.554Z,3586.00
2023-04-27T02:51:38.604Z,3559.00
2023-04-27T02:52:38.635Z,3572.00
2023-04-27T02:53:38.661Z,3573.00
2023-04-27T02:54:38.688Z,3575.00
2023-04-27T02:55:38.701Z,3573.00
2023-04-27T02:56:38.738Z,3558.00
2023-04-27T02:57:38.784Z,3560.00
2023-04-27T02:58:38.809Z,3545.00
2023-04-27T02:59:38.825Z,3583.00
2023-04-27T03:00:38.851Z,3566.00
2023-04-27T03:01:39.146Z,3574.00
2023-04-27T03:02:39.153Z,3550.00
2023-04-27T03:03:39.217Z,3548.00
2023-04-27T03:04:39.073Z,3521.00
2023-04-27T03:05:39.030Z,3509.00
2023-04-27T03:06:39.078Z,3536.00
2023-04-27T03:07:39.072Z,3548.00
2023-04-27T03:08:39.125Z,3539.00
2023-04-27T03:09:39.158Z,3576.00
2023-04-27T03:10:39.198Z,3596.00
2023-04-27T03:11:39.211Z,3604.00
2023-04-27T03:12:39.248Z,3614.00
2023-04-27T03:13:39.256Z,3604.00
2023-04-27T03:14:39.290Z,3594.00
2023-04-27T03:15:39.328Z,3585.00
2023-04-27T03:16:39.390Z,3589.00
2023-04-27T03:17:39.383Z,3573.00
2023-04-27T03:18:39.406Z,3561.00
2023-04-27T03:19:39.407Z,3565.00
2023-04-27T03:20:39.463Z,3590.00
2023-04-27T03:21:39.449Z,3573.00
2023-04-27T03:22:39.498Z,3554.00
2023-04-27T03:23:39.476Z,3546.00
2023-04-27T03:24:39.486Z,3537.00
2023-04-27T03:25:39.551Z,3535.00
2023-04-27T03:26:39.522Z,3534.00
2023-04-27T03:27:39.569Z,3527.00
2023-04-27T03:28:39.598Z,3506.00
2023-04-27T03:29:39.606Z,3518.00
2023-04-27T03:30:39.605Z,3521.00
2023-04-27T03:31:39.645Z,3540.00
2023-04-27T03:32:39.684Z,3521.00
2023-04-27T03:33:39.659Z,3522.00
2023-04-27T03:34:39.663Z,3509.00
2023-04-27T03:35:39.685Z,3511.00
2023-04-27T03:36:39.662Z,3504.00
2023-04-27T03:37:39.716Z,3505.00
2023-04-27T03:38:39.695Z,3498.00
2023-04-27T03:39:39.726Z,3484.00
2023-04-27T03:40:39.704Z,3466.00
2023-04-27T03:41:39.725Z,3480.00
2023-04-27T03:42:39.726Z,3473.00
2023-04-27T03:43:39.741Z,3475.00
2023-04-27T03:44:39.832Z,3462.00
2023-04-27T03:45:39.771Z,3478.00
2023-04-27T03:46:39.737Z,3520.00
2023-04-27T03:47:39.874Z,3531.00
2023-04-27T03:48:39.782Z,3523.00
2023-04-27T03:49:39.826Z,3509.00
2023-04-27T03:50:39.794Z,3475.00
2023-04-27T03:51:39.809Z,3458.00
2023-04-27T03:52:39.833Z,3466.00
2023-04-27T03:53:39.858Z,3461.00
2023-04-27T03:54:39.871Z,3491.00
2023-04-27T03:55:39.871Z,3493.00
2023-04-27T03:56:39.886Z,3524.00
2023-04-27T03:57:39.882Z,3522.00
2023-04-27T03:58:39.927Z,3535.00
2023-04-27T03:59:39.911Z,3528.00
2023-04-27T04:00:40.012Z,3516.00
2023-04-27T04:01:40.014Z,3509.00
2023-04-27T04:02:40.073Z,3510.00
2023-04-27T04:03:40.082Z,3489.00
2023-04-27T04:04:40.214Z,3479.00
2023-04-27T04:05:39.986Z,3475.00
2023-04-27T04:06:40.006Z,3460.00
2023-04-27T04:07:40.003Z,3463.00
2023-04-27T04:08:39.988Z,3451.00
2023-04-27T04:09:40.024Z,3481.00
2023-04-27T04:10:40.012Z,3478.00
2023-04-27T04:11:40.042Z,3465.00
2023-04-27T04:12:40.017Z,3471.00
2023-04-27T04:13:39.994Z,3456.00
2023-04-27T04:14:40.066Z,3460.00
2023-04-27T04:15:40.123Z,3450.00
2023-04-27T04:16:40.068Z,3452.00
2023-04-27T04:17:40.053Z,3461.00
2023-04-27T04:18:40.017Z,3467.00
2023-04-27T04:19:40.036Z,3442.00
2023-04-27T04:20:40.048Z,3456.00
2023-04-27T04:21:40.013Z,3467.00
2023-04-27T04:22:40.023Z,3480.00
2023-04-27T04:23:40.062Z,3478.00
2023-04-27T04:24:40.083Z,3493.00
2023-04-27T04:25:40.038Z,3489.00
2023-04-27T04:26:40.035Z,3495.00
2023-04-27T04:27:40.080Z,3498.00
2023-04-27T04:28:40.047Z,3513.00
2023-04-27T04:29:40.018Z,3524.00
2023-04-27T04:30:40.035Z,3510.00
2023-04-27T04:31:40.073Z,3514.00
2023-04-27T04:32:40.082Z,3537.00
2023-04-27T04:33:40.067Z,3538.00
2023-04-27T04:34:40.034Z,3541.00
2023-04-27T04:35:40.093Z,3547.00
2023-04-27T04:36:40.032Z,3573.00
2023-04-27T04:37:40.058Z,3591.00
2023-04-27T04:38:40.042Z,3601.00
2023-04-27T04:39:40.003Z,3602.00
2023-04-27T04:40:40.058Z,3593.00
2023-04-27T04:41:40.045Z,3594.00
2023-04-27T04:42:40.012Z,3592.00
2023-04-27T04:43:40.021Z,3606.00
2023-04-27T04:44:40.000Z,3628.00
2023-04-27T04:45:40.021Z,3617.00
2023-04-27T04:46:40.086Z,3630.00
2023-04-27T04:47:40.127Z,3630.00
2023-04-27T04:48:40.025Z,3626.00
2023-04-27T04:49:40.010Z,3642.00
2023-04-27T04:50:40.019Z,3647.00
2023-04-27T04:51:39.991Z,3660.00
2023-04-27T04:52:40.010Z,3654.00
2023-04-27T04:53:40.018Z,3658.00
2023-04-27T04:54:40.016Z,3653.00
2023-04-27T04:55:39.990Z,3676.00
2023-04-27T04:56:39.984Z,3662.00
2023-04-27T04:57:40.019Z,3679.00
2023-04-27T04:58:40.028Z,3681.00
2023-04-27T04:59:40.010Z,3675.00
2023-04-27T05:00:46.995Z,3684.00
2023-04-27T05:01:47.049Z,3686.00
2023-04-27T05:02:40.120Z,3687.00
2023-04-27T05:03:40.186Z,3696.00
2023-04-27T05:04:40.072Z,3703.00
2023-04-27T05:05:39.955Z,3709.00
2023-04-27T05:06:39.957Z,3714.00
2023-04-27T05:07:39.936Z,3702.00
2023-04-27T05:08:39.919Z,3712.00
2023-04-27T05:09:39.969Z,3705.00
2023-04-27T05:10:39.926Z,3696.00
2023-04-27T05:11:39.925Z,3696.00
2023-04-27T05:12:39.927Z,3689.00
2023-04-27T05:13:39.898Z,3671.00
2023-04-27T05:14:39.902Z,3683.00
2023-04-27T05:15:39.896Z,3689.00
2023-04-27T05:16:40.002Z,3704.00
2023-04-27T05:17:39.912Z,3704.00
2023-04-27T05:18:39.879Z,3704.00
2023-04-27T05:19:39.870Z,3711.00
2023-04-27T05:20:39.856Z,3713.00
2023-04-27T05:21:39.846Z,3703.00
2023-04-27T05:22:39.838Z,3716.00
2023-04-27T05:23:39.821Z,3734.00
2023-04-27T05:24:39.876Z,3730.00
2023-04-27T05:25:39.832Z,3730.00
2023-04-27T05:26:39.818Z,3730.00
2023-04-27T05:27:39.794Z,3729.00
2023-04-27T05:28:39.803Z,3736.00
2023-04-27T05:29:39.802Z,3747.00
2023-04-27T05:30:39.805Z,3754.00
2023-04-27T05:31:39.826Z,3762.00
2023-04-27T05:32:40.270Z,3765.00
2023-04-27T05:33:39.820Z,3772.00
2023-04-27T05:34:39.802Z,3754.00
2023-04-27T05:35:39.748Z,3738.00
2023-04-27T05:36:39.759Z,3733.00
2023-04-27T05:37:39.754Z,3718.00
2023-04-27T05:38:39.740Z,3723.00
2023-04-27T05:39:39.732Z,3745.00
2023-04-27T05:40:39.710Z,3806.00
2023-04-27T05:41:39.700Z,3843.00
2023-04-27T05:42:39.741Z,3887.00
2023-04-27T05:43:39.751Z,3963.00
2023-04-27T05:44:39.724Z,4003.00
2023-04-27T05:45:39.732Z,4058.00
2023-04-27T05:46:46.698Z,4126.00
2023-04-27T05:47:39.875Z,4130.00
2023-04-27T05:48:39.667Z,4155.00
2023-04-27T05:49:39.663Z,4194.00
2023-04-27T05:50:39.654Z,4333.00
2023-04-27T05:51:39.628Z,4578.00
2023-04-27T05:52:39.640Z,4596.00
2023-04-27T05:53:39.631Z,4635.00
2023-04-27T05:54:39.657Z,4799.00
2023-04-27T05:55:39.630Z,4710.00
2023-04-27T05:56:39.660Z,4690.00
2023-04-27T05:57:40.360Z,4681.00
2023-04-27T05:58:39.607Z,4670.00
2023-04-27T05:59:39.590Z,4707.00
2023-04-27T06:00:39.597Z,4681.00
2023-04-27T06:01:39.571Z,4716.00
2023-04-27T06:02:39.680Z,4750.00
2023-04-27T06:03:39.778Z,4799.00
2023-04-27T06:04:39.630Z,4702.00
2023-04-27T06:05:39.600Z,4675.00
2023-04-27T06:06:39.528Z,4657.00
2023-04-27T06:07:39.559Z,4719.00
2023-04-27T06:08:39.585Z,4760.00
2023-04-27T06:09:39.529Z,5002.00
2023-04-27T06:10:39.497Z,4911.00
2023-04-27T06:11:39.498Z,4935.00
2023-04-27T06:12:39.492Z,4988.00
2023-04-27T06:13:39.752Z,4982.00
2023-04-27T06:14:39.497Z,5078.00
2023-04-27T06:15:39.577Z,5152.00
2023-04-27T06:16:39.471Z,5264.00
2023-04-27T06:17:39.511Z,5295.00
2023-04-27T06:18:39.440Z,5295.00
2023-04-27T06:19:39.464Z,5358.00
2023-04-27T06:20:39.442Z,5404.00
2023-04-27T06:21:39.433Z,5811.00
2023-04-27T06:22:39.463Z,5707.00
2023-04-27T06:23:39.418Z,5634.00
2023-04-27T06:24:39.490Z,5705.00
2023-04-27T06:25:39.433Z,5720.00
2023-04-27T06:26:39.399Z,5742.00
2023-04-27T06:27:39.407Z,5821.00
2023-04-27T06:28:39.379Z,5994.00
2023-04-27T06:29:39.387Z,6125.00
2023-04-27T06:30:39.755Z,6068.00
2023-04-27T06:31:39.459Z,6030.00
2023-04-27T06:32:39.404Z,5859.00
2023-04-27T06:33:39.802Z,5512.00
2023-04-27T06:34:39.418Z,5410.00
2023-04-27T06:35:39.473Z,5244.00
2023-04-27T06:36:39.525Z,5184.00
2023-04-27T06:37:39.536Z,5158.00
2023-04-27T06:38:39.792Z,5112.00
2023-04-27T06:39:39.663Z,5026.00
2023-04-27T06:40:39.756Z,5084.00
2023-04-27T06:41:39.786Z,4952.00
2023-04-27T06:42:39.929Z,4970.00
2023-04-27T06:43:40.350Z,5244.00
2023-04-27T06:44:39.869Z,5401.00
2023-04-27T06:45:39.882Z,5368.00
2023-04-27T06:46:39.936Z,5364.00
2023-04-27T06:47:39.910Z,5268.00
2023-04-27T06:48:39.885Z,5171.00
2023-04-27T06:49:39.895Z,5281.00
2023-04-27T06:50:39.910Z,5206.00
2023-04-27T06:51:39.960Z,5080.00
2023-04-27T06:52:39.947Z,5225.00
2023-04-27T06:53:40.058Z,5481.00
2023-04-27T06:54:40.008Z,5450.00
2023-04-27T06:55:43.028Z,5555.00
2023-04-27T06:56:40.076Z,5615.00
2023-04-27T06:57:40.021Z,5501.00
2023-04-27T06:58:40.023Z,5479.00
2023-04-27T06:59:40.000Z,5516.00
2023-04-27T07:00:39.989Z,5486.00
2023-04-27T07:01:40.087Z,5425.00
2023-04-27T07:02:40.118Z,5393.00
2023-04-27T07:03:40.292Z,5359.00
2023-04-27T07:04:39.992Z,5370.00
2023-04-27T07:05:39.981Z,5306.00
2023-04-27T07:06:39.951Z,5281.00
2023-04-27T07:07:39.914Z,5235.00
2023-04-27T07:08:39.936Z,5263.00
2023-04-27T07:09:39.933Z,5237.00
2023-04-27T07:10:39.902Z,5159.00
2023-04-27T07:11:39.908Z,5108.00
2023-04-27T07:12:39.887Z,5095.00
2023-04-27T07:13:39.905Z,5077.00
2023-04-27T07:14:39.909Z,5057.00
2023-04-27T07:15:39.980Z,5049.00
2023-04-27T07:16:40.011Z,5029.00
2023-04-27T07:17:39.910Z,5015.00
2023-04-27T07:18:40.997Z,4978.00
2023-04-27T07:19:40.716Z,4978.00
2023-04-27T07:20:39.855Z,4978.00
2023-04-27T07:21:39.867Z,4980.00
2023-04-27T07:22:39.818Z,4969.00
2023-04-27T07:23:39.821Z,4961.00
2023-04-27T07:24:39.824Z,4945.00
2023-04-27T07:25:39.838Z,4920.00
2023-04-27T07:26:39.857Z,4900.00
2023-04-27T07:27:39.804Z,4857.00
2023-04-27T07:28:39.825Z,4805.00
2023-04-27T07:29:39.791Z,4766.00
2023-04-27T07:30:39.819Z,4740.00
2023-04-27T07:31:39.823Z,4724.00
2023-04-27T07:32:39.843Z,4709.00
2023-04-27T07:33:39.800Z,4658.00
2023-04-27T07:34:51.728Z,4441.00
2023-04-27T07:35:40.717Z,4077.00
2023-04-27T07:36:39.735Z,3744.00
2023-04-27T07:37:39.718Z,3629.00
2023-04-27T07:38:39.698Z,3423.00
2023-04-27T07:39:39.814Z,3284.00
2023-04-27T07:40:39.700Z,3132.00
2023-04-27T07:41:39.690Z,3055.00
2023-04-27T07:42:39.694Z,3016.00
2023-04-27T07:43:39.672Z,3059.00
2023-04-27T07:44:39.675Z,3270.00
2023-04-27T07:45:39.690Z,3505.00
2023-04-27T07:46:39.704Z,3694.00
2023-04-27T07:47:39.779Z,3950.00
2023-04-27T07:48:39.840Z,4004.00
2023-04-27T07:49:39.848Z,4128.00
2023-04-27T07:50:39.901Z,4247.00
2023-04-27T07:51:39.941Z,4376.00
2023-04-27T07:52:39.958Z,4418.00
2023-04-27T07:53:39.997Z,4425.00
2023-04-27T07:54:39.983Z,4408.00
2023-04-27T07:55:40.037Z,4351.00
2023-04-27T07:56:40.015Z,4310.00
2023-04-27T07:57:40.056Z,4267.00
2023-04-27T07:58:40.073Z,4288.00
2023-04-27T07:59:40.096Z,4300.00
2023-04-27T08:00:40.123Z,4344.00
2023-04-27T08:01:40.080Z,4349.00
2023-04-27T08:02:40.278Z,4363.00
2023-04-27T08:03:40.299Z,4379.00
2023-04-27T08:04:40.442Z,4381.00
2023-04-27T08:05:40.326Z,4374.00
2023-04-27T08:06:40.444Z,4360.00
2023-04-27T08:07:44.633Z,4341.00
2023-04-27T08:08:41.043Z,4342.00
2023-04-27T08:09:40.903Z,4325.00
2023-04-27T08:10:40.050Z,4325.00
2023-04-27T08:11:40.082Z,4319.00
2023-04-27T08:12:40.096Z,4299.00
2023-04-27T08:13:40.030Z,4277.00
2023-04-27T08:14:40.010Z,4268.00
2023-04-27T08:15:40.015Z,4176.00
2023-04-27T08:16:40.027Z,4176.00
2023-04-27T08:17:40.004Z,4172.00
2023-04-27T08:18:39.993Z,4179.00
2023-04-27T08:19:40.015Z,4177.00
2023-04-27T08:20:39.983Z,4179.00
2023-04-27T08:21:39.944Z,4152.00
2023-04-27T08:22:39.968Z,4136.00
2023-04-27T08:23:39.997Z,4066.00
2023-04-27T08:24:39.933Z,3944.00
2023-04-27T08:25:39.943Z,3610.00
2023-04-27T08:26:39.937Z,2881.00
2023-04-27T08:27:39.919Z,2537.00
2023-04-27T08:28:39.915Z,2247.00
2023-04-27T08:29:39.880Z,1879.00
2023-04-27T08:30:39.910Z,1748.00
2023-04-27T08:31:39.991Z,1970.00
2023-04-27T08:32:40.046Z,2336.00
2023-04-27T08:33:39.927Z,2759.00
2023-04-27T08:34:40.306Z,3061.00
2023-04-27T08:35:40.029Z,3188.00
2023-04-27T08:36:40.031Z,3305.00
2023-04-27T08:37:40.041Z,3170.00
2023-04-27T08:38:40.040Z,3013.00
2023-04-27T08:39:40.285Z,2876.00
2023-04-27T08:40:40.086Z,2987.00
2023-04-27T08:41:40.091Z,2960.00
2023-04-27T08:42:40.124Z,2849.00
2023-04-27T08:43:40.160Z,2556.00
2023-04-27T08:44:40.170Z,2343.00
2023-04-27T08:45:40.180Z,2119.00
2023-04-27T08:46:40.223Z,1938.00
2023-04-27T08:47:43.921Z,1820.00
2023-04-27T08:48:40.246Z,2132.00
2023-04-27T08:49:40.249Z,2537.00
2023-04-27T08:50:40.217Z,2563.00
2023-04-27T08:51:40.193Z,2559.00
2023-04-27T08:52:40.229Z,2503.00
2023-04-27T08:53:40.197Z,2403.00
2023-04-27T08:54:40.182Z,2303.00
2023-04-27T08:55:40.196Z,2219.00
2023-04-27T08:56:40.225Z,2312.00
2023-04-27T08:57:40.160Z,2145.00
2023-04-27T08:58:40.131Z,1976.00
2023-04-27T08:59:40.176Z,1850.00
2023-04-27T09:00:40.141Z,1684.00
2023-04-27T09:01:40.204Z,1642.00
2023-04-27T09:02:40.289Z,1585.00
2023-04-27T09:03:40.226Z,1519.00
2023-04-27T09:04:40.294Z,1613.00
2023-04-27T09:05:46.590Z,1763.00
2023-04-27T09:06:41.124Z,1602.00
2023-04-27T09:07:40.099Z,1491.00
2023-04-27T09:08:40.134Z,1439.00
2023-04-27T09:09:40.064Z,1377.00
2023-04-27T09:10:40.310Z,1329.00
2023-04-27T09:11:40.098Z,1337.00
2023-04-27T09:12:40.083Z,1335.00
2023-04-27T09:13:40.081Z,1366.00
2023-04-27T09:14:40.064Z,1465.00
2023-04-27T09:15:40.090Z,1457.00
2023-04-27T09:16:40.120Z,1356.00
2023-04-27T09:17:40.053Z,1271.00
2023-04-27T09:18:39.993Z,1330.00
2023-04-27T09:19:40.056Z,1311.00
2023-04-27T09:20:40.115Z,1334.00
2023-04-27T09:21:40.159Z,1429.00
2023-04-27T09:22:40.201Z,1381.00
2023-04-27T09:23:40.227Z,1692.00
2023-04-27T09:24:40.305Z,1911.00
2023-04-27T09:25:40.842Z,2166.00
2023-04-27T09:26:40.363Z,2430.00
2023-04-27T09:27:40.411Z,2619.00
2023-04-27T09:28:40.413Z,2784.00
2023-04-27T09:29:40.440Z,2973.00
2023-04-27T09:30:40.484Z,3048.00
2023-04-27T09:31:40.542Z,3142.00
2023-04-27T09:32:40.518Z,3049.00
2023-04-27T09:33:40.502Z,2870.00
2023-04-27T09:34:40.511Z,2498.00
2023-04-27T09:35:40.830Z,2429.00
2023-04-27T09:36:40.539Z,2277.00
2023-04-27T09:37:40.547Z,2263.00
2023-04-27T09:38:40.533Z,2886.00
2023-04-27T09:39:40.553Z,2728.00
2023-04-27T09:40:40.552Z,2913.00
2023-04-27T09:41:40.609Z,2940.00
2023-04-27T09:42:40.614Z,2892.00
2023-04-27T09:43:40.581Z,2968.00
2023-04-27T09:44:40.957Z,3115.00
2023-04-27T09:45:40.636Z,3310.00
2023-04-27T09:46:40.604Z,3566.00
2023-04-27T09:47:40.648Z,3681.00
2023-04-27T09:48:40.624Z,3758.00
2023-04-27T09:49:40.639Z,3728.00
2023-04-27T09:50:40.831Z,3446.00
2023-04-27T09:51:40.603Z,3085.00
2023-04-27T09:52:40.600Z,2781.00
2023-04-27T09:53:40.603Z,2669.00
2023-04-27T09:54:40.613Z,2504.00
2023-04-27T09:55:40.608Z,2276.00
2023-04-27T09:56:40.587Z,2192.00
2023-04-27T09:57:40.615Z,2227.00
2023-04-27T09:58:40.590Z,2393.00
2023-04-27T09:59:40.601Z,2398.00
2023-04-27T10:00:40.839Z,2182.00
2023-04-27T10:01:40.629Z,2098.00
2023-04-27T10:02:52.171Z,2200.00
2023-04-27T10:03:41.617Z,2142.00
2023-04-27T10:04:40.772Z,1966.00
2023-04-27T10:05:41.545Z,2061.00
2023-04-27T10:06:40.556Z,2102.00
2023-04-27T10:07:40.532Z,2180.00
2023-04-27T10:08:40.553Z,2101.00
2023-04-27T10:09:40.546Z,1960.00
2023-04-27T10:10:40.527Z,1965.00
2023-04-27T10:11:40.528Z,1945.00
2023-04-27T10:12:40.493Z,2123.00
2023-04-27T10:13:40.514Z,2030.00
2023-04-27T10:14:40.483Z,1998.00
2023-04-27T10:15:40.495Z,2065.00
2023-04-27T10:16:40.548Z,2058.00
2023-04-27T10:17:40.487Z,2033.00
2023-04-27T10:18:40.464Z,1862.00
2023-04-27T10:19:40.517Z,1916.00
2023-04-27T10:20:40.457Z,1942.00
2023-04-27T10:21:40.433Z,1771.00
2023-04-27T10:22:40.426Z,1787.00
2023-04-27T10:23:40.445Z,1776.00
2023-04-27T10:24:40.410Z,1917.00
2023-04-27T10:25:40.535Z,1883.00
2023-04-27T10:26:40.380Z,2021.00
2023-04-27T10:27:40.394Z,2381.00
2023-04-27T10:28:40.379Z,2615.00
2023-04-27T10:29:40.399Z,2802.00
2023-04-27T10:30:40.445Z,2968.00
2023-04-27T10:31:40.375Z,3042.00
2023-04-27T10:32:40.359Z,3150.00
2023-04-27T10:33:40.338Z,3279.00
2023-04-27T10:34:40.349Z,3235.00
2023-04-27T10:35:40.885Z,3167.00
2023-04-27T10:36:40.459Z,3155.00
2023-04-27T10:37:40.544Z,3053.00
2023-04-27T10:38:40.583Z,2984.00
2023-04-27T10:39:48.010Z,2752.00
2023-04-27T10:40:41.891Z,2756.00
2023-04-27T10:41:40.624Z,2764.00
2023-04-27T10:42:40.650Z,2759.00
2023-04-27T10:43:40.578Z,2620.00
2023-04-27T10:44:40.608Z,2609.00
2023-04-27T10:45:40.558Z,2600.00
2023-04-27T10:46:40.889Z,2491.00
2023-04-27T10:47:40.572Z,2316.00
2023-04-27T10:48:40.606Z,2090.00
2023-04-27T10:49:40.555Z,1924.00
2023-04-27T10:50:40.560Z,1741.00
2023-04-27T10:51:40.548Z,1708.00
2023-04-27T10:52:40.539Z,1346.00
2023-04-27T10:53:40.566Z,1322.00
2023-04-27T10:54:40.516Z,1103.00
2023-04-27T10:55:40.581Z,1058.00
2023-04-27T10:56:40.886Z,1125.00
2023-04-27T10:57:40.624Z,1303.00
2023-04-27T10:58:48.690Z,1512.00
2023-04-27T10:59:41.667Z,1514.00
2023-04-27T11:00:40.627Z,1360.00
2023-04-27T11:01:40.643Z,664.00
2023-04-27T11:02:40.727Z,860.00
2023-04-27T11:03:40.762Z,1197.00
2023-04-27T11:04:40.643Z,1588.00
2023-04-27T11:05:40.631Z,1769.00
2023-04-27T11:06:40.597Z,1619.00
2023-04-27T11:07:40.617Z,1624.00
2023-04-27T11:08:40.602Z,1412.00
2023-04-27T11:09:40.597Z,1570.00
2023-04-27T11:10:40.577Z,1827.00
2023-04-27T11:11:40.579Z,1582.00
2023-04-27T11:12:40.625Z,1108.00
2023-04-27T11:13:40.762Z,1023.00
2023-04-27T11:14:40.733Z,827.00
2023-04-27T11:15:40.807Z,704.00
2023-04-27T11:16:40.814Z,721.00
2023-04-27T11:17:40.886Z,638.00
2023-04-27T11:18:40.916Z,627.00
2023-04-27T11:19:40.898Z,634.00
2023-04-27T11:20:40.981Z,848.00
2023-04-27T11:21:41.406Z,631.00
2023-04-27T11:22:41.069Z,607.00
2023-04-27T11:23:41.105Z,809.00
2023-04-27T11:24:41.115Z,692.00
2023-04-27T11:25:41.178Z,681.00
2023-04-27T11:26:41.246Z,727.00
2023-04-27T11:27:41.256Z,877.00
2023-04-27T11:28:41.298Z,1032.00
2023-04-27T11:29:41.874Z,1136.00
2023-04-27T11:30:41.414Z,1240.00
2023-04-27T11:31:41.957Z,1317.00
2023-04-27T11:32:41.528Z,1349.00
2023-04-27T11:33:41.517Z,1517.00
2023-04-27T11:34:41.541Z,1585.00
2023-04-27T11:35:41.586Z,1698.00
2023-04-27T11:36:41.880Z,1813.00
2023-04-27T11:37:41.668Z,1864.00
2023-04-27T11:38:41.679Z,1957.00
2023-04-27T11:39:41.720Z,2021.00
2023-04-27T11:40:41.652Z,2000.00
2023-04-27T11:41:41.914Z,2028.00
2023-04-27T11:42:41.716Z,2050.00
2023-04-27T11:43:41.731Z,2071.00
2023-04-27T11:44:41.722Z,2012.00
2023-04-27T11:45:41.726Z,2012.00
2023-04-27T11:46:41.769Z,2039.00
2023-04-27T11:47:41.768Z,2082.00
2023-04-27T11:48:41.771Z,2145.00
2023-04-27T11:49:41.779Z,2161.00
2023-04-27T11:50:41.780Z,2195.00
2023-04-27T11:51:41.904Z,2249.00
2023-04-27T11:52:41.769Z,2248.00
2023-04-27T11:53:41.776Z,2344.00
2023-04-27T11:54:41.782Z,2358.00
2023-04-27T11:55:41.795Z,2397.00
2023-04-27T11:56:41.748Z,2407.00
2023-04-27T11:57:41.762Z,2466.00
2023-04-27T11:58:42.345Z,2504.00
2023-04-27T11:59:41.761Z,2535.00
2023-04-27T12:00:41.775Z,2565.00
2023-04-27T12:01:41.780Z,2543.00
2023-04-27T12:02:42.086Z,2487.00
2023-04-27T12:04:41.896Z,2475.00
2023-04-27T12:05:41.832Z,2520.00
2023-04-27T12:06:41.754Z,2511.00
2023-04-27T12:07:41.743Z,2513.00